Time;durP1;ratioP1;P1;durP2;ratioP2;P2;SDS_P1;SDS_P2;PMS_P1;PMS_P2;Temp;Humidity;BMP_temperature;BMP_pressure;BME280_temperature;BME280_humidity;BME280_pressure;Samples;Min_cycle;Max_cycle;Signal;HPM_P1;HPM_P2
2023/07/10 00:02:05;;;;;;;1.52;1.52;;;;;;;;;;6336791;28;20471;-69
2023/07/10 00:05:14;;;;;;;4.32;1.60;;;;;;;;;;6336467;28;20434;-69
2023/07/10 00:08:20;;;;;;;1.38;1.38;;;;;;;;;;6336744;28;20487;-70
2023/07/10 00:11:27;;;;;;;3.30;1.50;;;;;;;;;;6336609;28;20246;-70
2023/07/10 00:14:34;;;;;;;1.92;1.85;;;;;;;;;;6336586;28;20254;-70
2023/07/10 00:17:38;;;;;;;1.70;1.70;;;;;;;;;;6336200;28;20241;-69
2023/07/10 00:20:45;;;;;;;3.80;1.33;;;;;;;;;;6336072;28;20238;-70
2023/07/10 00:23:51;;;;;;;1.60;1.55;;;;;;;;;;6336851;28;20242;-71
2023/07/10 00:26:55;;;;;;;2.53;1.45;;;;;;;;;;6335947;28;20230;-69
2023/07/10 00:30:00;;;;;;;1.70;1.60;;;;;;;;;;6335630;28;20246;-70
2023/07/10 00:33:08;;;;;;;1.90;1.80;;;;;;;;;;6334342;28;20285;-69
2023/07/10 00:36:27;;;;;;;3.78;1.80;;;;;;;;;;6334583;28;20273;-68
2023/07/10 00:39:36;;;;;;;1.77;1.67;;;;;;;;;;6336017;28;20226;-71
2023/07/10 00:42:41;;;;;;;1.77;1.70;;;;;;;;;;6334500;28;20266;-70
2023/07/10 00:45:45;;;;;;;2.22;1.60;;;;;;;;;;6336701;28;20258;-70
2023/07/10 00:48:53;;;;;;;1.67;1.67;;;;;;;;;;6334478;28;20274;-69
2023/07/10 00:52:03;;;;;;;6.55;1.90;;;;;;;;;;6333857;28;20266;-70
2023/07/10 00:55:17;;;;;;;1.52;1.52;;;;;;;;;;6334961;28;20293;-70
2023/07/10 00:58:25;;;;;;;1.60;1.60;;;;;;;;;;6335271;28;20376;-70
2023/07/10 01:01:34;;;;;;;4.00;2.00;;;;;;;;;;6336017;28;20254;-69
2023/07/10 01:04:40;;;;;;;1.77;1.70;;;;;;;;;;6335629;28;20238;-70
2023/07/10 01:07:47;;;;;;;2.15;1.40;;;;;;;;;;6333862;28;20270;-70
2023/07/10 01:10:54;;;;;;;1.73;1.63;;;;;;;;;;6335125;28;20242;-70
2023/07/10 01:13:59;;;;;;;2.90;1.85;;;;;;;;;;6333611;28;20293;-70
2023/07/10 01:17:05;;;;;;;3.25;1.50;;;;;;;;;;6333873;28;20265;-70
2023/07/10 01:20:36;;;;;;;3.15;1.80;;;;;;;;;;6334011;28;20269;-70
2023/07/10 01:23:42;;;;;;;5.40;1.77;;;;;;;;;;6334660;28;20436;-70
2023/07/10 01:26:47;;;;;;;1.38;1.30;;;;;;;;;;6334653;28;20402;-69
2023/07/10 01:30:00;;;;;;;4.72;1.60;;;;;;;;;;6334672;28;20421;-69
2023/07/10 01:33:07;;;;;;;1.80;1.70;;;;;;;;;;6334671;28;20261;-70
2023/07/10 01:36:13;;;;;;;3.95;1.67;;;;;;;;;;6333915;28;20409;-69
2023/07/10 01:39:37;;;;;;;3.03;1.60;;;;;;;;;;6333825;28;20385;-69
2023/07/10 01:42:41;;;;;;;2.55;1.50;;;;;;;;;;6333285;28;20270;-70
2023/07/10 01:45:48;;;;;;;5.38;1.80;;;;;;;;;;6334611;28;20238;-70
2023/07/10 01:48:56;;;;;;;1.67;1.58;;;;;;;;;;6334484;28;20428;-69
2023/07/10 01:52:03;;;;;;;1.52;1.52;;;;;;;;;;6333800;28;20274;-70
2023/07/10 01:55:10;;;;;;;2.03;1.80;;;;;;;;;;6334385;28;20253;-70
2023/07/10 01:58:15;;;;;;;2.10;2.00;;;;;;;;;;6334565;28;20243;-70
2023/07/10 02:01:20;;;;;;;1.40;1.40;;;;;;;;;;6333545;28;20270;-68
2023/07/10 02:04:25;;;;;;;2.85;1.75;;;;;;;;;;6334167;28;20518;-70
2023/07/10 02:07:30;;;;;;;4.68;2.13;;;;;;;;;;6333081;28;20558;-69
2023/07/10 02:10:36;;;;;;;2.47;2.00;;;;;;;;;;6334248;28;20238;-69
2023/07/10 02:13:49;;;;;;;4.72;1.67;;;;;;;;;;6333163;28;20411;-70
2023/07/10 02:16:54;;;;;;;1.80;1.60;;;;;;;;;;6334449;28;20246;-70
2023/07/10 02:19:58;;;;;;;7.50;1.77;;;;;;;;;;6338796;28;20226;-69
2023/07/10 02:23:03;;;;;;;1.60;1.50;;;;;;;;;;6339200;28;20247;-71
2023/07/10 02:26:09;;;;;;;1.83;1.65;;;;;;;;;;6337759;28;20270;-69
2023/07/10 02:29:14;;;;;;;16.73;2.38;;;;;;;;;;6338646;28;20267;-70
2023/07/10 02:32:19;;;;;;;8.02;2.10;;;;;;;;;;6337472;28;20613;-70
2023/07/10 02:35:24;;;;;;;7.10;2.05;;;;;;;;;;6337723;28;20293;-69
2023/07/10 02:38:28;;;;;;;2.80;1.77;;;;;;;;;;6338909;28;20374;-70
2023/07/10 02:41:34;;;;;;;1.92;1.92;;;;;;;;;;6337704;28;20274;-71
2023/07/10 02:44:39;;;;;;;2.67;1.90;;;;;;;;;;6337431;28;20452;-68
2023/07/10 02:47:43;;;;;;;2.15;1.73;;;;;;;;;;6337288;28;20273;-69
2023/07/10 02:50:48;;;;;;;4.57;1.90;;;;;;;;;;6336966;28;20270;-69
2023/07/10 02:53:53;;;;;;;2.38;2.20;;;;;;;;;;6338050;28;20425;-69
2023/07/10 02:56:59;;;;;;;2.22;2.10;;;;;;;;;;6338042;28;20250;-70
2023/07/10 03:00:04;;;;;;;1.90;1.80;;;;;;;;;;6337497;28;20285;-70
2023/07/10 03:03:09;;;;;;;3.28;2.05;;;;;;;;;;6338373;28;20238;-69
2023/07/10 03:06:14;;;;;;;1.80;1.80;;;;;;;;;;6338230;28;20245;-70
2023/07/10 03:09:20;;;;;;;1.80;1.80;;;;;;;;;;6312850;28;20469;-69
2023/07/10 03:12:26;;;;;;;10.25;1.90;;;;;;;;;;6312672;28;20239;-69
2023/07/10 03:15:31;;;;;;;3.00;1.73;;;;;;;;;;6314016;28;20259;-69
2023/07/10 03:18:35;;;;;;;1.73;1.60;;;;;;;;;;6312775;28;20234;-70
2023/07/10 03:21:40;;;;;;;1.63;1.60;;;;;;;;;;6313179;28;20239;-70
2023/07/10 03:24:44;;;;;;;2.15;2.00;;;;;;;;;;6313250;28;20247;-71
2023/07/10 03:27:51;;;;;;;1.63;1.63;;;;;;;;;;6312508;28;20234;-70
2023/07/10 03:30:57;;;;;;;1.60;1.50;;;;;;;;;;6312372;28;20286;-69
2023/07/10 03:34:01;;;;;;;1.48;1.42;;;;;;;;;;6312147;28;20263;-69
2023/07/10 03:37:07;;;;;;;1.50;1.50;;;;;;;;;;6312231;28;20264;-69
2023/07/10 03:40:12;;;;;;;1.60;1.55;;;;;;;;;;6311949;28;20234;-69
2023/07/10 03:43:18;;;;;;;1.75;1.75;;;;;;;;;;6311879;28;20244;-69
2023/07/10 03:46:23;;;;;;;1.90;1.80;;;;;;;;;;6311873;28;20251;-70
2023/07/10 03:49:27;;;;;;;4.07;1.60;;;;;;;;;;6311503;28;20239;-69
2023/07/10 03:52:32;;;;;;;2.35;1.75;;;;;;;;;;6311703;28;20235;-70
2023/07/10 03:55:36;;;;;;;2.40;1.88;;;;;;;;;;6311152;28;20266;-69
2023/07/10 03:58:43;;;;;;;1.75;1.75;;;;;;;;;;6311666;28;20243;-69
2023/07/10 04:01:48;;;;;;;1.73;1.65;;;;;;;;;;6311780;28;20532;-70
2023/07/10 04:04:52;;;;;;;1.70;1.70;;;;;;;;;;6311350;28;20277;-70
2023/07/10 04:07:57;;;;;;;2.08;1.50;;;;;;;;;;6325341;28;20242;-70
2023/07/10 04:11:03;;;;;;;3.45;1.60;;;;;;;;;;6336364;28;20238;-69
2023/07/10 04:14:09;;;;;;;1.35;1.35;;;;;;;;;;6336355;28;20242;-70
2023/07/10 04:17:15;;;;;;;1.23;1.23;;;;;;;;;;6336305;28;20325;-69
2023/07/10 04:20:19;;;;;;;1.77;1.67;;;;;;;;;;6336186;28;20235;-70
2023/07/10 04:23:24;;;;;;;1.25;1.25;;;;;;;;;;6336200;28;20523;-70
2023/07/10 04:26:31;;;;;;;1.70;1.60;;;;;;;;;;6336098;28;20230;-70
2023/07/10 04:29:37;;;;;;;2.45;1.33;;;;;;;;;;6336147;28;20230;-70
2023/07/10 04:32:41;;;;;;;1.58;1.50;;;;;;;;;;6335975;28;20301;-70
2023/07/10 04:35:53;;;;;;;1.60;1.60;;;;;;;;;;6336043;28;20261;-70
2023/07/10 04:38:58;;;;;;;1.50;1.50;;;;;;;;;;6335772;28;20246;-70
2023/07/10 04:42:03;;;;;;;3.75;2.03;;;;;;;;;;6335490;28;20234;-70
2023/07/10 04:45:10;;;;;;;1.75;1.65;;;;;;;;;;6335799;28;20242;-70
2023/07/10 04:48:14;;;;;;;1.55;1.55;;;;;;;;;;6335375;28;20251;-70
2023/07/10 04:51:20;;;;;;;1.45;1.35;;;;;;;;;;6335529;28;20238;-69
2023/07/10 04:54:25;;;;;;;1.50;1.50;;;;;;;;;;6335454;28;20242;-69
2023/07/10 04:57:29;;;;;;;1.40;1.40;;;;;;;;;;6335184;28;20234;-70
2023/07/10 05:00:35;;;;;;;1.45;1.40;;;;;;;;;;6335252;28;20262;-69
2023/07/10 05:03:40;;;;;;;3.05;1.52;;;;;;;;;;6335435;28;20522;-70
2023/07/10 05:06:44;;;;;;;1.65;1.55;;;;;;;;;;6334929;28;20501;-69
2023/07/10 05:09:49;;;;;;;1.60;1.60;;;;;;;;;;6335570;28;20242;-69
2023/07/10 05:12:54;;;;;;;1.42;1.42;;;;;;;;;;6335169;28;20226;-70
2023/07/10 05:16:00;;;;;;;2.90;1.55;;;;;;;;;;6334609;28;20282;-70
2023/07/10 05:19:06;;;;;;;1.35;1.35;;;;;;;;;;6334847;28;20238;-71
2023/07/10 05:22:10;;;;;;;1.50;1.40;;;;;;;;;;6334701;28;20242;-70
2023/07/10 05:25:15;;;;;;;1.75;1.75;;;;;;;;;;6335110;28;20246;-70
2023/07/10 05:28:20;;;;;;;1.85;1.85;;;;;;;;;;6334935;28;20283;-69
2023/07/10 05:31:26;;;;;;;1.60;1.60;;;;;;;;;;6334566;28;20277;-70
2023/07/10 05:34:30;;;;;;;4.47;1.30;;;;;;;;;;6336699;28;20246;-69
2023/07/10 05:37:35;;;;;;;2.30;1.70;;;;;;;;;;6334449;28;20257;-71
2023/07/10 05:40:42;;;;;;;3.08;1.35;;;;;;;;;;6334654;28;20429;-71
2023/07/10 05:43:47;;;;;;;1.63;1.45;;;;;;;;;;6337038;28;20250;-70
2023/07/10 05:46:55;;;;;;;6.88;1.63;;;;;;;;;;6334262;28;20618;-70
2023/07/10 05:50:00;;;;;;;3.10;1.60;;;;;;;;;;6334542;28;20230;-69
2023/07/10 05:53:05;;;;;;;2.97;1.52;;;;;;;;;;6336836;28;20515;-70
2023/07/10 05:56:10;;;;;;;1.42;1.42;;;;;;;;;;6338036;28;20286;-70
2023/07/10 05:59:16;;;;;;;1.40;1.40;;;;;;;;;;6339408;28;20238;-70
2023/07/10 06:02:22;;;;;;;1.48;1.33;;;;;;;;;;6339752;28;20231;-70
2023/07/10 06:05:26;;;;;;;2.65;1.60;;;;;;;;;;6339313;28;20238;-70
2023/07/10 06:08:31;;;;;;;1.50;1.50;;;;;;;;;;6339166;28;20248;-69
2023/07/10 06:11:36;;;;;;;2.70;1.30;;;;;;;;;;6339283;28;20484;-70
2023/07/10 06:14:41;;;;;;;5.57;1.40;;;;;;;;;;6339415;28;20239;-70
2023/07/10 06:17:47;;;;;;;3.00;1.50;;;;;;;;;;6338923;28;20265;-69
2023/07/10 06:20:53;;;;;;;1.50;1.50;;;;;;;;;;6338945;28;20246;-70
2023/07/10 06:23:57;;;;;;;5.40;1.77;;;;;;;;;;6339251;28;20239;-69
2023/07/10 06:27:02;;;;;;;9.18;1.65;;;;;;;;;;6338844;28;20535;-71
2023/07/10 06:30:08;;;;;;;1.58;1.48;;;;;;;;;;6338823;28;20525;-69
2023/07/10 06:33:14;;;;;;;1.60;1.60;;;;;;;;;;6338877;28;20234;-69
2023/07/10 06:36:19;;;;;;;2.15;1.58;;;;;;;;;;6338508;28;20266;-69
2023/07/10 06:39:24;;;;;;;1.50;1.40;;;;;;;;;;6338684;28;20239;-70
2023/07/10 06:42:28;;;;;;;1.63;1.63;;;;;;;;;;6338319;28;20242;-70
2023/07/10 06:45:32;;;;;;;1.42;1.42;;;;;;;;;;6338556;28;20239;-70
2023/07/10 06:48:39;;;;;;;2.20;1.50;;;;;;;;;;6337960;28;20246;-68
2023/07/10 06:51:44;;;;;;;1.38;1.38;;;;;;;;;;6338219;28;20230;-70
2023/07/10 06:54:48;;;;;;;1.80;1.80;;;;;;;;;;6337937;28;20522;-70
2023/07/10 06:57:53;;;;;;;1.80;1.70;;;;;;;;;;6337581;28;20254;-69
2023/07/10 07:00:58;;;;;;;1.90;1.83;;;;;;;;;;6337873;28;20523;-69
2023/07/10 07:04:05;;;;;;;2.30;1.60;;;;;;;;;;6337375;28;20235;-70
2023/07/10 07:07:10;;;;;;;1.42;1.42;;;;;;;;;;6337934;28;20245;-70
2023/07/10 07:10:15;;;;;;;6.18;2.08;;;;;;;;;;6338246;28;20239;-69
2023/07/10 07:13:20;;;;;;;2.85;1.80;;;;;;;;;;6338083;28;20247;-70
2023/07/10 07:16:26;;;;;;;1.60;1.50;;;;;;;;;;6337543;28;20257;-69
2023/07/10 07:19:32;;;;;;;1.60;1.58;;;;;;;;;;6337857;28;20242;-70
2023/07/10 07:22:36;;;;;;;2.25;1.73;;;;;;;;;;6337458;28;20234;-71
2023/07/10 07:25:42;;;;;;;1.50;1.40;;;;;;;;;;6337748;28;20238;-70
2023/07/10 07:28:46;;;;;;;5.47;2.08;;;;;;;;;;6337701;28;20243;-69
2023/07/10 07:31:51;;;;;;;1.80;1.70;;;;;;;;;;6336772;28;20480;-70
2023/07/10 07:34:57;;;;;;;7.93;1.95;;;;;;;;;;6337354;28;20238;-70
2023/07/10 07:38:01;;;;;;;1.45;1.45;;;;;;;;;;6337570;28;20258;-70
2023/07/10 07:41:07;;;;;;;1.48;1.48;;;;;;;;;;6337273;28;20521;-70
2023/07/10 07:44:11;;;;;;;1.90;1.80;;;;;;;;;;6337305;28;20246;-71
2023/07/10 07:47:17;;;;;;;1.67;1.67;;;;;;;;;;6335856;28;20278;-70
2023/07/10 07:50:23;;;;;;;1.80;1.80;;;;;;;;;;6336673;28;20250;-70
2023/07/10 07:53:28;;;;;;;1.70;1.70;;;;;;;;;;6337089;28;20243;-69
2023/07/10 07:56:33;;;;;;;3.15;2.17;;;;;;;;;;6336549;28;20278;-70
2023/07/10 07:59:37;;;;;;;2.70;2.00;;;;;;;;;;6336596;28;20238;-70
2023/07/10 08:02:42;;;;;;;2.08;2.00;;;;;;;;;;6335377;28;20270;-69
2023/07/10 08:05:48;;;;;;;1.50;1.50;;;;;;;;;;6336472;28;20235;-70
2023/07/10 08:08:52;;;;;;;5.10;1.70;;;;;;;;;;6336852;28;20266;-69
2023/07/10 08:11:57;;;;;;;1.60;1.60;;;;;;;;;;6336072;28;20255;-70
2023/07/10 08:15:02;;;;;;;1.73;1.65;;;;;;;;;;6335641;28;20247;-71
2023/07/10 08:18:07;;;;;;;2.58;1.60;;;;;;;;;;6336529;28;20258;-70
2023/07/10 08:21:17;;;;;;;8.70;2.28;;;;;;;;;;6336037;28;20242;-70
2023/07/10 08:24:21;;;;;;;2.00;1.90;;;;;;;;;;6335805;28;20263;-70
2023/07/10 08:27:26;;;;;;;2.17;2.15;;;;;;;;;;6335787;28;20554;-70
2023/07/10 08:30:32;;;;;;;5.10;2.03;;;;;;;;;;6335667;28;20278;-69
2023/07/10 08:33:36;;;;;;;1.77;1.77;;;;;;;;;;6336432;28;20238;-70
2023/07/10 08:36:42;;;;;;;1.67;1.67;;;;;;;;;;6336033;28;20499;-70
2023/07/10 08:39:47;;;;;;;1.67;1.67;;;;;;;;;;6336166;28;20278;-69
2023/07/10 08:42:52;;;;;;;1.77;1.67;;;;;;;;;;6336055;28;20514;-70
2023/07/10 08:46:04;;;;;;;4.22;2.40;;;;;;;;;;6335711;28;20238;-70
2023/07/10 08:49:15;;;;;;;2.53;1.77;;;;;;;;;;6335359;28;20246;-71
2023/07/10 08:52:29;;;;;;;1.80;1.70;;;;;;;;;;6335270;28;20239;-70
2023/07/10 08:55:43;;;;;;;1.83;1.73;;;;;;;;;;6335794;28;20234;-71
2023/07/10 08:58:47;;;;;;;1.73;1.73;;;;;;;;;;6335136;28;20442;-69
2023/07/10 09:01:52;;;;;;;1.98;1.70;;;;;;;;;;6335521;28;20246;-70
2023/07/10 09:04:57;;;;;;;1.95;1.60;;;;;;;;;;6335021;28;20503;-70
2023/07/10 09:08:05;;;;;;;4.22;1.60;;;;;;;;;;6335062;28;20423;-70
2023/07/10 09:11:12;;;;;;;2.00;1.90;;;;;;;;;;6334507;28;20293;-69
2023/07/10 09:14:24;;;;;;;2.60;1.60;;;;;;;;;;6334776;28;20241;-70
2023/07/10 09:17:37;;;;;;;5.90;1.55;;;;;;;;;;6334679;28;20258;-70
2023/07/10 09:20:42;;;;;;;1.50;1.50;;;;;;;;;;6334767;28;20322;-71
2023/07/10 09:23:49;;;;;;;1.75;1.65;;;;;;;;;;6334888;28;20547;-70
2023/07/10 09:26:55;;;;;;;2.95;1.70;;;;;;;;;;6334630;28;20242;-70
2023/07/10 09:30:00;;;;;;;1.92;1.73;;;;;;;;;;6334950;28;20254;-71
2023/07/10 09:33:08;;;;;;;1.73;1.73;;;;;;;;;;6334688;28;20226;-70
2023/07/10 09:36:15;;;;;;;1.70;1.70;;;;;;;;;;6335206;28;20247;-69
2023/07/10 09:39:21;;;;;;;1.70;1.70;;;;;;;;;;6334750;28;20262;-69
2023/07/10 09:42:32;;;;;;;3.50;1.90;;;;;;;;;;6333316;28;20265;-70
2023/07/10 09:45:40;;;;;;;1.50;1.50;;;;;;;;;;6334398;28;20238;-69
2023/07/10 09:48:47;;;;;;;3.17;1.80;;;;;;;;;;6334942;28;20243;-71
2023/07/10 09:51:57;;;;;;;2.50;1.70;;;;;;;;;;6334956;28;20238;-69
2023/07/10 09:55:12;;;;;;;4.32;1.60;;;;;;;;;;6334971;28;20243;-69
2023/07/10 09:58:16;;;;;;;1.98;1.88;;;;;;;;;;6334579;28;20262;-70
2023/07/10 10:01:23;;;;;;;1.45;1.45;;;;;;;;;;6334985;28;20559;-71
2023/07/10 10:04:29;;;;;;;1.38;1.38;;;;;;;;;;6334829;28;20238;-69
2023/07/10 10:07:38;;;;;;;1.58;1.58;;;;;;;;;;6335003;28;20250;-70
2023/07/10 10:10:44;;;;;;;1.80;1.80;;;;;;;;;;6334892;28;20511;-70
2023/07/10 10:13:56;;;;;;;2.45;1.67;;;;;;;;;;6334887;28;20484;-70
2023/07/10 10:17:05;;;;;;;4.03;1.77;;;;;;;;;;6334109;28;20238;-70
2023/07/10 10:20:16;;;;;;;2.95;1.33;;;;;;;;;;6334382;28;20271;-69
2023/07/10 10:23:32;;;;;;;2.85;1.70;;;;;;;;;;6334006;28;20230;-70
2023/07/10 10:26:57;;;;;;;1.85;1.75;;;;;;;;;;6334154;28;20230;-68
2023/07/10 10:30:24;;;;;;;2.03;1.90;;;;;;;;;;6333861;28;20242;-70
2023/07/10 10:33:31;;;;;;;1.98;1.80;;;;;;;;;;6334347;28;20235;-71
2023/07/10 10:36:43;;;;;;;1.88;1.88;;;;;;;;;;6333602;28;20235;-69
2023/07/10 10:39:54;;;;;;;5.15;1.73;;;;;;;;;;6337003;28;20262;-69
2023/07/10 10:43:13;;;;;;;1.98;1.70;;;;;;;;;;6338833;28;20234;-70
2023/07/10 10:46:27;;;;;;;1.90;1.80;;;;;;;;;;6338903;28;20238;-71
2023/07/10 10:49:47;;;;;;;2.03;1.92;;;;;;;;;;6338922;28;20247;-69
2023/07/10 10:53:00;;;;;;;1.83;1.83;;;;;;;;;;6338345;28;20234;-70
2023/07/10 10:56:15;;;;;;;7.45;2.20;;;;;;;;;;6338232;28;20234;-69
2023/07/10 10:59:30;;;;;;;4.97;1.48;;;;;;;;;;6338019;28;20274;-70
2023/07/10 11:02:44;;;;;;;4.03;1.75;;;;;;;;;;6338584;28;20235;-70
2023/07/10 11:05:52;;;;;;;1.63;1.63;;;;;;;;;;6338117;28;20247;-71
2023/07/10 11:08:59;;;;;;;3.10;1.35;;;;;;;;;;6337929;28;20262;-70
2023/07/10 11:12:05;;;;;;;2.30;1.80;;;;;;;;;;6338003;28;20242;-70
2023/07/10 11:15:18;;;;;;;1.75;1.40;;;;;;;;;;6337930;28;20234;-70
2023/07/10 11:18:23;;;;;;;1.65;1.60;;;;;;;;;;6337915;28;20234;-69
2023/07/10 11:21:27;;;;;;;1.90;1.60;;;;;;;;;;6337584;28;20258;-69
2023/07/10 11:24:35;;;;;;;1.85;1.60;;;;;;;;;;6337832;28;20523;-70
2023/07/10 11:27:44;;;;;;;2.75;1.50;;;;;;;;;;6337567;28;20239;-70
2023/07/10 11:31:12;;;;;;;1.70;1.60;;;;;;;;;;6337386;28;20290;-70
2023/07/10 11:34:40;;;;;;;1.45;1.45;;;;;;;;;;6337876;28;20258;-70
2023/07/10 11:38:16;;;;;;;3.58;1.60;;;;;;;;;;6337116;28;20543;-71
2023/07/10 11:41:27;;;;;;;2.35;1.70;;;;;;;;;;6336965;28;20243;-70
2023/07/10 11:44:40;;;;;;;1.55;1.52;;;;;;;;;;6337250;28;20226;-70
2023/07/10 11:47:46;;;;;;;1.50;1.40;;;;;;;;;;6336782;28;20247;-72
2023/07/10 11:50:51;;;;;;;1.60;1.50;;;;;;;;;;6336990;28;20262;-70
2023/07/10 11:54:44;;;;;;;4.47;1.70;;;;;;;;;;6337151;28;20230;-70
2023/07/10 11:58:30;;;;;;;1.63;1.42;;;;;;;;;;6336998;28;20483;-69
2023/07/10 12:01:36;;;;;;;1.50;1.50;;;;;;;;;;6332243;28;20263;-70
2023/07/10 12:04:43;;;;;;;1.85;1.75;;;;;;;;;;6336474;28;20238;-70
2023/07/10 12:08:00;;;;;;;2.25;1.40;;;;;;;;;;6336889;28;20237;-71
2023/07/10 12:11:30;;;;;;;1.77;1.70;;;;;;;;;;6336850;28;20243;-70
2023/07/10 12:14:35;;;;;;;1.45;1.45;;;;;;;;;;6336183;28;20404;-69
2023/07/10 12:17:41;;;;;;;2.15;1.88;;;;;;;;;;6336248;28;20242;-70
2023/07/10 12:20:49;;;;;;;1.45;1.45;;;;;;;;;;6334635;28;20463;-71
2023/07/10 12:23:54;;;;;;;1.70;1.55;;;;;;;;;;6336642;28;20250;-70
2023/07/10 12:27:01;;;;;;;1.63;1.55;;;;;;;;;;6335911;28;20234;-70
2023/07/10 12:30:27;;;;;;;1.63;1.63;;;;;;;;;;6335633;28;20471;-69
2023/07/10 12:33:39;;;;;;;1.85;1.77;;;;;;;;;;6335905;28;20239;-70
2023/07/10 12:36:43;;;;;;;1.58;1.58;;;;;;;;;;6335559;28;20242;-69
2023/07/10 12:39:51;;;;;;;1.60;1.50;;;;;;;;;;6335650;28;20261;-70
2023/07/10 12:42:56;;;;;;;1.42;1.38;;;;;;;;;;6335414;28;20243;-70
2023/07/10 12:46:01;;;;;;;1.70;1.60;;;;;;;;;;6335567;28;20234;-70
2023/07/10 12:49:13;;;;;;;2.00;1.83;;;;;;;;;;6335877;28;20514;-69
2023/07/10 12:52:18;;;;;;;2.03;1.85;;;;;;;;;;6335173;28;20247;-69
2023/07/10 12:55:24;;;;;;;1.98;1.80;;;;;;;;;;6335401;28;20243;-71
2023/07/10 12:58:30;;;;;;;1.83;1.70;;;;;;;;;;6335411;28;20230;-70
2023/07/10 13:01:34;;;;;;;2.28;1.50;;;;;;;;;;6334347;28;20261;-70
2023/07/10 13:04:46;;;;;;;1.63;1.63;;;;;;;;;;6335412;28;20242;-69
2023/07/10 13:07:53;;;;;;;2.08;1.80;;;;;;;;;;6335256;28;20251;-70
2023/07/10 13:10:58;;;;;;;1.77;1.73;;;;;;;;;;6335281;28;20241;-69
2023/07/10 13:14:06;;;;;;;1.98;1.83;;;;;;;;;;6335744;28;20246;-70
2023/07/10 13:17:22;;;;;;;2.63;1.80;;;;;;;;;;6335054;28;20234;-70
2023/07/10 13:20:29;;;;;;;8.65;4.38;;;;;;;;;;6335555;28;20266;-70
2023/07/10 13:23:34;;;;;;;2.22;2.10;;;;;;;;;;6334528;28;20242;-69
2023/07/10 13:26:38;;;;;;;3.03;1.80;;;;;;;;;;6334500;28;20419;-70
2023/07/10 13:29:43;;;;;;;1.92;1.75;;;;;;;;;;6334821;28;20318;-70
2023/07/10 13:32:48;;;;;;;2.65;2.08;;;;;;;;;;6334193;28;20294;-70
2023/07/10 13:35:56;;;;;;;1.55;1.55;;;;;;;;;;6334851;28;20235;-70
2023/07/10 13:39:01;;;;;;;1.80;1.70;;;;;;;;;;6334582;28;20242;-69
2023/07/10 13:42:10;;;;;;;2.80;1.67;;;;;;;;;;6334313;28;20261;-69
2023/07/10 13:45:14;;;;;;;1.92;1.92;;;;;;;;;;6334275;28;20234;-70
2023/07/10 13:48:19;;;;;;;3.10;2.00;;;;;;;;;;6334838;28;20235;-70
2023/07/10 13:51:27;;;;;;;2.80;2.10;;;;;;;;;;6334353;28;20251;-70
2023/07/10 13:54:32;;;;;;;1.77;1.70;;;;;;;;;;6334315;28;20239;-70
2023/07/10 13:57:36;;;;;;;1.90;1.80;;;;;;;;;;6334584;28;20238;-70
2023/07/10 14:00:41;;;;;;;1.83;1.80;;;;;;;;;;6334498;28;20349;-70
2023/07/10 14:03:46;;;;;;;1.83;1.83;;;;;;;;;;6334646;28;20262;-69
2023/07/10 14:06:52;;;;;;;1.92;1.92;;;;;;;;;;6334379;28;20234;-70
2023/07/10 14:09:58;;;;;;;1.80;1.70;;;;;;;;;;6334606;28;20262;-70
2023/07/10 14:13:03;;;;;;;3.95;1.83;;;;;;;;;;6334855;28;20242;-71
2023/07/10 14:16:15;;;;;;;2.92;1.88;;;;;;;;;;6339392;28;20247;-70
2023/07/10 14:19:20;;;;;;;2.55;1.60;;;;;;;;;;6339106;28;20242;-71
2023/07/10 14:22:27;;;;;;;1.70;1.63;;;;;;;;;;6338668;28;20271;-70
2023/07/10 14:25:31;;;;;;;1.98;1.88;;;;;;;;;;6338978;28;20230;-70
2023/07/10 14:28:36;;;;;;;1.90;1.90;;;;;;;;;;6338607;28;20254;-70
2023/07/10 14:31:40;;;;;;;2.00;1.90;;;;;;;;;;6338447;28;20333;-69
2023/07/10 14:34:45;;;;;;;1.95;1.95;;;;;;;;;;6337839;28;20290;-70
2023/07/10 14:37:52;;;;;;;2.20;1.98;;;;;;;;;;6338854;28;20234;-70
2023/07/10 14:40:57;;;;;;;1.85;1.85;;;;;;;;;;6338238;28;20427;-69
2023/07/10 14:44:02;;;;;;;1.77;1.67;;;;;;;;;;6338714;28;20234;-70
2023/07/10 14:47:25;;;;;;;1.90;1.75;;;;;;;;;;6338719;28;20417;-70
2023/07/10 14:50:30;;;;;;;1.50;1.50;;;;;;;;;;6338267;28;20254;-70
2023/07/10 14:53:35;;;;;;;3.05;1.88;;;;;;;;;;6338385;28;20242;-70
2023/07/10 14:56:41;;;;;;;3.22;2.05;;;;;;;;;;6338213;28;20238;-70
2023/07/10 14:59:45;;;;;;;1.70;1.55;;;;;;;;;;6338043;28;20236;-70
2023/07/10 15:02:51;;;;;;;3.92;1.80;;;;;;;;;;6338258;28;20450;-70
2023/07/10 15:05:57;;;;;;;2.00;1.90;;;;;;;;;;6337502;28;20274;-70
2023/07/10 15:09:03;;;;;;;2.20;2.00;;;;;;;;;;6338315;28;20238;-71
2023/07/10 15:12:11;;;;;;;1.98;1.85;;;;;;;;;;6338181;28;20238;-69
2023/07/10 15:15:16;;;;;;;1.90;1.80;;;;;;;;;;6337629;28;20238;-70
2023/07/10 15:18:24;;;;;;;2.22;1.83;;;;;;;;;;6337854;28;20247;-70
2023/07/10 15:21:28;;;;;;;1.70;1.60;;;;;;;;;;6338910;28;20258;-71
2023/07/10 15:24:35;;;;;;;1.40;1.40;;;;;;;;;;6338733;28;20536;-72
2023/07/10 15:27:39;;;;;;;1.70;1.70;;;;;;;;;;6338745;28;20234;-71
2023/07/10 15:30:44;;;;;;;1.67;1.60;;;;;;;;;;6338055;28;20473;-70
2023/07/10 15:33:48;;;;;;;1.98;1.88;;;;;;;;;;6338285;28;20238;-70
2023/07/10 15:36:54;;;;;;;1.63;1.63;;;;;;;;;;6337733;28;20254;-70
2023/07/10 15:40:00;;;;;;;2.67;1.40;;;;;;;;;;6338410;28;20242;-70
2023/07/10 15:43:06;;;;;;;1.67;1.67;;;;;;;;;;6337655;28;20265;-70
2023/07/10 15:46:11;;;;;;;1.42;1.42;;;;;;;;;;6336983;28;20242;-70
2023/07/10 15:49:21;;;;;;;1.67;1.58;;;;;;;;;;6336991;28;20247;-68
2023/07/10 15:52:29;;;;;;;2.55;1.42;;;;;;;;;;6336858;28;20239;-71
2023/07/10 15:55:35;;;;;;;1.60;1.50;;;;;;;;;;6337706;28;20507;-70
2023/07/10 15:58:40;;;;;;;1.33;1.33;;;;;;;;;;6336577;28;20243;-69
2023/07/10 16:01:48;;;;;;;2.03;1.63;;;;;;;;;;6336800;28;20445;-70
2023/07/10 16:04:53;;;;;;;1.55;1.50;;;;;;;;;;6337930;28;20239;-70
2023/07/10 16:07:58;;;;;;;1.83;1.65;;;;;;;;;;6337205;28;20251;-70
2023/07/10 16:11:11;;;;;;;1.50;1.50;;;;;;;;;;6337258;28;20242;-70
2023/07/10 16:14:17;;;;;;;1.60;1.60;;;;;;;;;;6336915;28;20246;-70
2023/07/10 16:17:22;;;;;;;2.03;1.55;;;;;;;;;;6336922;28;20535;-71
2023/07/10 16:20:28;;;;;;;1.40;1.40;;;;;;;;;;6337108;28;20264;-69
2023/07/10 16:23:34;;;;;;;1.88;1.77;;;;;;;;;;6336485;28;20263;-69
2023/07/10 16:26:40;;;;;;;4.25;1.60;;;;;;;;;;6336264;28;20234;-70
2023/07/10 16:29:45;;;;;;;1.60;1.60;;;;;;;;;;6335956;28;20259;-70
2023/07/10 16:32:50;;;;;;;1.92;1.80;;;;;;;;;;6336334;28;20302;-69
2023/07/10 16:35:56;;;;;;;1.77;1.77;;;;;;;;;;6335251;28;20234;-70
2023/07/10 16:39:00;;;;;;;1.75;1.75;;;;;;;;;;6336276;28;20242;-69
2023/07/10 16:42:13;;;;;;;5.15;2.42;;;;;;;;;;6335957;28;20563;-69
2023/07/10 16:45:19;;;;;;;3.20;3.10;;;;;;;;;;6335583;28;20258;-69
2023/07/10 16:48:26;;;;;;;2.10;1.90;;;;;;;;;;6335896;28;20230;-70
2023/07/10 16:51:30;;;;;;;2.15;2.00;;;;;;;;;;6335859;28;20527;-70
2023/07/10 16:54:36;;;;;;;1.52;1.50;;;;;;;;;;6335959;28;20230;-70
2023/07/10 16:57:42;;;;;;;1.60;1.60;;;;;;;;;;6335789;28;20237;-70
2023/07/10 17:00:47;;;;;;;1.95;1.58;;;;;;;;;;6335412;28;20238;-70
2023/07/10 17:03:53;;;;;;;1.65;1.45;;;;;;;;;;6335634;28;20448;-70
2023/07/10 17:07:00;;;;;;;1.88;1.88;;;;;;;;;;6335785;28;20234;-69
2023/07/10 17:10:06;;;;;;;2.17;1.83;;;;;;;;;;6334341;28;20273;-70
2023/07/10 17:13:14;;;;;;;1.75;1.75;;;;;;;;;;6335600;28;20519;-70
2023/07/10 17:16:19;;;;;;;1.60;1.60;;;;;;;;;;6335176;28;20234;-70
2023/07/10 17:19:23;;;;;;;4.13;1.80;;;;;;;;;;6335296;28;20515;-70
2023/07/10 17:22:31;;;;;;;2.33;1.67;;;;;;;;;;6334942;28;20277;-70
2023/07/10 17:25:35;;;;;;;2.10;1.80;;;;;;;;;;6335019;28;20243;-70
2023/07/10 17:28:42;;;;;;;1.95;1.60;;;;;;;;;;6335371;28;20241;-69
2023/07/10 17:31:47;;;;;;;2.35;1.67;;;;;;;;;;6334736;28;20286;-70
2023/07/10 17:34:52;;;;;;;2.10;1.90;;;;;;;;;;6334776;28;20306;-70
2023/07/10 17:37:56;;;;;;;2.00;1.83;;;;;;;;;;6334720;28;20237;-70
2023/07/10 17:41:01;;;;;;;3.17;2.05;;;;;;;;;;6334881;28;20507;-70
2023/07/10 17:44:17;;;;;;;2.17;2.05;;;;;;;;;;6334803;28;20262;-70
2023/07/10 17:47:21;;;;;;;2.10;2.00;;;;;;;;;;6335269;28;20246;-70
2023/07/10 17:50:26;;;;;;;1.80;1.70;;;;;;;;;;6340295;28;20235;-69
2023/07/10 17:53:30;;;;;;;2.70;1.63;;;;;;;;;;6340202;28;20243;-70
2023/07/10 17:56:35;;;;;;;3.70;2.05;;;;;;;;;;6340158;28;20242;-69
2023/07/10 17:59:41;;;;;;;2.15;1.90;;;;;;;;;;6340336;28;20245;-70
2023/07/10 18:02:47;;;;;;;2.03;2.03;;;;;;;;;;6339979;28;20258;-70
2023/07/10 18:05:51;;;;;;;1.70;1.67;;;;;;;;;;6340231;28;20273;-70
2023/07/10 18:08:56;;;;;;;2.05;2.00;;;;;;;;;;6340231;28;20515;-70
2023/07/10 18:12:01;;;;;;;2.85;1.90;;;;;;;;;;6339760;28;20242;-69
2023/07/10 18:15:15;;;;;;;1.83;1.70;;;;;;;;;;6339453;28;20239;-71
2023/07/10 18:18:19;;;;;;;2.10;1.88;;;;;;;;;;6339727;28;20242;-70
2023/07/10 18:21:26;;;;;;;2.67;1.95;;;;;;;;;;6339192;28;20233;-69
2023/07/10 18:24:31;;;;;;;1.75;1.75;;;;;;;;;;6339575;28;20329;-69
2023/07/10 18:27:36;;;;;;;2.47;1.95;;;;;;;;;;6339127;28;20234;-69
2023/07/10 18:30:42;;;;;;;1.83;1.83;;;;;;;;;;6339377;28;20489;-70
2023/07/10 18:33:47;;;;;;;1.73;1.73;;;;;;;;;;6339338;28;20241;-69
2023/07/10 18:36:52;;;;;;;1.90;1.90;;;;;;;;;;6339211;28;20257;-70
2023/07/10 18:39:56;;;;;;;2.53;2.30;;;;;;;;;;6339147;28;20495;-71
2023/07/10 18:43:01;;;;;;;2.22;2.08;;;;;;;;;;6339060;28;20266;-70